createdAt,value
2019-03-30T00:00:16.959Z,90.1
2019-03-30T00:01:17.026Z,90.0
2019-03-30T00:02:16.356Z,90.2
2019-03-30T00:03:16.640Z,90.3
2019-03-30T00:04:16.946Z,90.3
2019-03-30T00:05:17.246Z,90.4
2019-03-30T00:06:16.555Z,90.5
2019-03-30T00:07:16.876Z,90.4
2019-03-30T00:08:17.187Z,90.4
2019-03-30T00:09:16.505Z,90.4
2019-03-30T00:10:16.842Z,90.5
2019-03-30T00:11:16.878Z,90.6
2019-03-30T00:12:17.238Z,90.5
2019-03-30T00:13:16.536Z,90.5
2019-03-30T00:14:16.848Z,90.5
2019-03-30T00:15:17.171Z,90.5
2019-03-30T00:16:16.498Z,90.4
2019-03-30T00:17:16.800Z,90.8
2019-03-30T00:18:17.113Z,91.2
2019-03-30T00:19:16.406Z,91.3
2019-03-30T00:20:16.691Z,91.2
2019-03-30T00:21:16.749Z,91.2
2019-03-30T00:22:17.085Z,91.4
2019-03-30T00:23:16.474Z,91.6
2019-03-30T00:24:16.760Z,91.7
2019-03-30T00:25:17.094Z,91.5
2019-03-30T00:26:16.392Z,91.3
2019-03-30T00:27:16.674Z,91.4
2019-03-30T00:28:16.965Z,91.5
2019-03-30T00:29:17.267Z,91.3
2019-03-30T00:30:19.439Z,91.2
2019-03-30T00:31:16.632Z,91.3
2019-03-30T00:32:16.953Z,91.3
2019-03-30T00:33:17.245Z,91.5
2019-03-30T00:34:16.569Z,91.5
2019-03-30T00:35:16.862Z,91.3
2019-03-30T00:36:17.144Z,91.2
2019-03-30T00:37:16.453Z,91.1
2019-03-30T00:38:16.755Z,91.2
2019-03-30T00:39:17.072Z,91.3
2019-03-30T00:40:16.371Z,91.3
2019-03-30T00:41:16.415Z,91.4
2019-03-30T00:42:17.072Z,91.5
2019-03-30T00:43:16.377Z,91.6
2019-03-30T00:44:16.683Z,91.8
2019-03-30T00:45:17.032Z,91.8
2019-03-30T00:46:16.358Z,91.7
2019-03-30T00:47:16.665Z,91.8
2019-03-30T00:48:17.006Z,92.1
2019-03-30T00:49:16.343Z,92.2
2019-03-30T00:50:16.665Z,92.2
2019-03-30T00:51:16.683Z,92.5
2019-03-30T00:52:16.995Z,92.1
2019-03-30T00:53:16.285Z,92.2
2019-03-30T00:54:16.598Z,92.0
2019-03-30T00:55:16.911Z,91.9
2019-03-30T00:56:17.216Z,91.9
2019-03-30T00:57:16.524Z,91.9
2019-03-30T00:58:16.821Z,91.8
2019-03-30T00:59:17.151Z,91.8
2019-03-30T01:00:16.490Z,91.7
2019-03-30T01:01:16.510Z,91.6
2019-03-30T01:02:16.823Z,91.8
2019-03-30T01:03:17.142Z,91.8
2019-03-30T01:04:16.434Z,91.7
2019-03-30T01:05:16.747Z,91.5
2019-03-30T01:06:17.054Z,91.5
2019-03-30T01:07:16.367Z,91.6
2019-03-30T01:08:16.688Z,91.6
2019-03-30T01:09:16.995Z,91.8
2019-03-30T01:10:16.292Z,91.9
2019-03-30T01:11:16.345Z,92.2
2019-03-30T01:12:16.641Z,92.4
2019-03-30T01:13:16.939Z,92.2
2019-03-30T01:14:17.258Z,92.1
2019-03-30T01:15:16.569Z,92.2
2019-03-30T01:16:16.901Z,92.5
2019-03-30T01:17:17.518Z,92.1
2019-03-30T01:18:16.834Z,92.2
2019-03-30T01:19:17.137Z,92.2
2019-03-30T01:20:16.442Z,92.3
2019-03-30T01:21:16.493Z,92.3
2019-03-30T01:22:16.789Z,92.5
2019-03-30T01:23:17.076Z,92.4
2019-03-30T01:24:16.372Z,92.5
2019-03-30T01:25:16.663Z,92.6
2019-03-30T01:26:16.971Z,92.7
2019-03-30T01:27:17.592Z,92.8
2019-03-30T01:28:16.887Z,93.0
2019-03-30T01:29:17.193Z,93.0
2019-03-30T01:30:23.715Z,92.8
2019-03-30T01:31:16.548Z,92.5
2019-03-30T01:32:16.864Z,92.5
2019-03-30T01:33:17.148Z,92.2
2019-03-30T01:34:16.489Z,92.2
2019-03-30T01:35:16.957Z,92.2
2019-03-30T01:36:17.275Z,92.2
2019-03-30T01:37:16.594Z,92.2
2019-03-30T01:38:16.872Z,92.2
2019-03-30T01:39:17.173Z,92.2
2019-03-30T01:40:16.492Z,92.3
2019-03-30T01:41:16.511Z,92.4
2019-03-30T01:42:16.796Z,92.3
2019-03-30T01:43:17.100Z,92.3
2019-03-30T01:44:16.389Z,92.3
2019-03-30T01:45:16.663Z,92.3
2019-03-30T01:46:16.965Z,92.3
2019-03-30T01:47:17.683Z,92.2
2019-03-30T01:48:16.982Z,92.2
2019-03-30T01:49:17.274Z,92.2
2019-03-30T01:50:18.323Z,92.2
2019-03-30T01:51:16.626Z,92.2
2019-03-30T01:52:16.926Z,92.3
2019-03-30T01:53:17.238Z,92.5
2019-03-30T01:54:16.530Z,92.7
2019-03-30T01:55:16.848Z,92.6
2019-03-30T01:56:17.179Z,92.7
2019-03-30T01:57:16.515Z,92.6
2019-03-30T01:58:16.788Z,92.6
2019-03-30T01:59:17.087Z,92.5
2019-03-30T02:00:16.392Z,92.5
2019-03-30T02:01:16.447Z,92.4
2019-03-30T02:02:16.759Z,92.4
2019-03-30T02:03:17.048Z,92.5
2019-03-30T02:04:16.360Z,92.5
2019-03-30T02:05:16.658Z,92.5
2019-03-30T02:06:16.954Z,92.4
2019-03-30T02:07:17.274Z,92.4
2019-03-30T02:08:16.590Z,92.5
2019-03-30T02:09:16.909Z,92.5
2019-03-30T02:10:17.224Z,92.6
2019-03-30T02:11:17.274Z,92.8
2019-03-30T02:12:16.607Z,92.8
2019-03-30T02:13:16.929Z,92.6
2019-03-30T02:14:17.229Z,92.4
2019-03-30T02:15:16.554Z,92.4
2019-03-30T02:16:16.879Z,92.5
2019-03-30T02:17:20.383Z,92.5
2019-03-30T02:18:16.713Z,92.7
2019-03-30T02:19:17.027Z,92.7
2019-03-30T02:20:30.730Z,92.8
2019-03-30T02:21:16.449Z,92.8
2019-03-30T02:22:16.759Z,92.8
2019-03-30T02:23:17.074Z,92.8
2019-03-30T02:24:16.378Z,92.8
2019-03-30T02:25:16.730Z,92.8
2019-03-30T02:26:17.043Z,92.7
2019-03-30T02:27:16.347Z,92.5
2019-03-30T02:28:16.928Z,92.6
2019-03-30T02:29:17.205Z,92.7
2019-03-30T02:30:16.533Z,92.6
2019-03-30T02:31:16.570Z,92.6
2019-03-30T02:32:16.911Z,92.7
2019-03-30T02:33:17.265Z,92.7
2019-03-30T02:34:16.611Z,92.7
2019-03-30T02:35:16.954Z,92.7
2019-03-30T02:36:17.245Z,92.8
2019-03-30T02:37:16.559Z,92.7
2019-03-30T02:38:16.872Z,92.7
2019-03-30T02:39:17.229Z,92.8
2019-03-30T02:40:16.561Z,92.8
2019-03-30T02:41:16.627Z,92.8
2019-03-30T02:42:16.933Z,92.7
2019-03-30T02:43:17.208Z,92.7
2019-03-30T02:44:16.514Z,92.8
2019-03-30T02:45:16.827Z,92.8
2019-03-30T02:46:17.146Z,92.8
2019-03-30T02:47:16.481Z,92.8
2019-03-30T02:48:16.799Z,93.0
2019-03-30T02:49:17.104Z,93.0
2019-03-30T02:50:16.433Z,93.0
2019-03-30T02:51:16.468Z,93.0
2019-03-30T02:52:16.773Z,93.1
2019-03-30T02:53:17.099Z,93.2
2019-03-30T02:54:16.439Z,93.0
2019-03-30T02:55:16.766Z,93.0
2019-03-30T02:56:17.095Z,92.8
2019-03-30T02:57:16.432Z,92.9
2019-03-30T02:58:16.743Z,92.9
2019-03-30T02:59:16.999Z,92.8
2019-03-30T03:00:16.326Z,92.9
2019-03-30T03:01:16.368Z,92.8
2019-03-30T03:02:16.684Z,92.6
2019-03-30T03:03:17.000Z,92.8
2019-03-30T03:04:16.312Z,92.7
2019-03-30T03:05:16.624Z,92.8
2019-03-30T03:06:16.935Z,92.9
2019-03-30T03:07:17.239Z,93.0
2019-03-30T03:08:16.544Z,93.2
2019-03-30T03:09:16.829Z,93.3
2019-03-30T03:10:17.158Z,93.3
2019-03-30T03:11:17.185Z,93.2
2019-03-30T03:12:16.503Z,93.3
2019-03-30T03:13:16.827Z,93.4
2019-03-30T03:14:17.124Z,93.5
2019-03-30T03:15:16.454Z,93.3
2019-03-30T03:16:16.775Z,93.3
2019-03-30T03:17:17.101Z,93.3
2019-03-30T03:18:16.414Z,93.3
2019-03-30T03:19:16.750Z,93.3
2019-03-30T03:20:17.053Z,93.3
2019-03-30T03:21:17.147Z,93.3
2019-03-30T03:22:16.547Z,93.4
2019-03-30T03:23:16.856Z,93.4
2019-03-30T03:24:17.146Z,93.4
2019-03-30T03:25:16.470Z,93.5
2019-03-30T03:26:16.758Z,93.6
2019-03-30T03:27:17.062Z,93.7
2019-03-30T03:28:16.492Z,93.7
2019-03-30T03:29:16.836Z,93.6
2019-03-30T03:30:17.188Z,93.7
2019-03-30T03:31:17.218Z,93.8
2019-03-30T03:32:16.527Z,94.0
2019-03-30T03:33:16.900Z,94.0
2019-03-30T03:34:17.317Z,94.2
2019-03-30T03:35:16.628Z,94.2
2019-03-30T03:36:16.924Z,94.0
2019-03-30T03:37:17.249Z,94.0
2019-03-30T03:38:16.558Z,93.9
2019-03-30T03:39:16.884Z,94.1
2019-03-30T03:40:17.192Z,94.1
2019-03-30T03:41:17.227Z,94.2
2019-03-30T03:42:16.538Z,94.2
2019-03-30T03:43:16.840Z,94.2
2019-03-30T03:44:17.138Z,94.3
2019-03-30T03:45:16.460Z,94.4
2019-03-30T03:46:16.795Z,94.0
2019-03-30T03:47:17.099Z,93.8
2019-03-30T03:48:16.416Z,94.0
2019-03-30T03:49:16.743Z,94.3
2019-03-30T03:50:17.028Z,94.5
2019-03-30T03:51:26.726Z,94.4
2019-03-30T03:52:17.167Z,94.5
2019-03-30T03:53:16.488Z,94.3
2019-03-30T03:54:16.797Z,94.2
2019-03-30T03:55:17.122Z,94.0
2019-03-30T03:56:16.418Z,94.2
2019-03-30T03:57:16.722Z,94.2
2019-03-30T03:58:17.022Z,94.2
2019-03-30T03:59:16.317Z,94.0
2019-03-30T04:00:16.658Z,94.1
2019-03-30T04:01:16.668Z,94.0
2019-03-30T04:02:16.977Z,93.8
2019-03-30T04:03:17.302Z,93.8
2019-03-30T04:04:16.590Z,93.6
2019-03-30T04:05:16.913Z,93.5
2019-03-30T04:06:17.258Z,93.3
2019-03-30T04:07:16.562Z,93.5
2019-03-30T04:08:16.889Z,93.6
2019-03-30T04:09:17.206Z,93.6
2019-03-30T04:10:16.523Z,93.6
2019-03-30T04:11:16.539Z,93.7
2019-03-30T04:12:16.858Z,93.8
2019-03-30T04:13:17.204Z,93.7
2019-03-30T04:14:16.530Z,93.8
2019-03-30T04:15:16.810Z,93.8
2019-03-30T04:16:17.088Z,93.9
2019-03-30T04:17:16.405Z,94.0
2019-03-30T04:18:16.724Z,94.2
2019-03-30T04:19:17.035Z,94.2
2019-03-30T04:20:16.379Z,94.3
2019-03-30T04:21:16.398Z,94.5
2019-03-30T04:22:16.708Z,94.7
2019-03-30T04:23:17.039Z,94.8
2019-03-30T04:24:16.356Z,94.7
2019-03-30T04:25:16.673Z,94.7
2019-03-30T04:26:16.985Z,94.7
2019-03-30T04:27:16.307Z,94.7
2019-03-30T04:28:16.626Z,94.8
2019-03-30T04:29:16.942Z,94.8
2019-03-30T04:30:17.256Z,94.8
2019-03-30T04:31:16.297Z,94.8
2019-03-30T04:32:16.628Z,94.8
2019-03-30T04:33:16.962Z,94.5
2019-03-30T04:34:17.266Z,94.5
2019-03-30T04:35:16.589Z,94.5
2019-03-30T04:36:16.882Z,94.5
2019-03-30T04:37:17.227Z,94.5
2019-03-30T04:38:16.543Z,94.6
2019-03-30T04:39:16.850Z,94.7
2019-03-30T04:40:17.136Z,94.7
2019-03-30T04:41:17.232Z,94.7
2019-03-30T04:42:16.559Z,94.7
2019-03-30T04:43:16.883Z,94.8
2019-03-30T04:44:17.186Z,94.8
2019-03-30T04:45:16.507Z,94.8
2019-03-30T04:46:16.819Z,94.7
2019-03-30T04:47:17.124Z,94.7
2019-03-30T04:48:16.450Z,94.5
2019-03-30T04:49:16.766Z,94.5
2019-03-30T04:50:17.132Z,94.4
2019-03-30T04:51:17.106Z,94.2
2019-03-30T04:52:16.403Z,94.2
2019-03-30T04:53:16.712Z,94.2
2019-03-30T04:54:17.013Z,94.1
2019-03-30T04:55:16.323Z,94.1
2019-03-30T04:56:16.607Z,94.3
2019-03-30T04:57:16.906Z,94.2
2019-03-30T04:58:17.244Z,94.1
2019-03-30T04:59:16.499Z,94.1
2019-03-30T05:00:16.788Z,94.2
2019-03-30T05:01:16.828Z,94.2
2019-03-30T05:02:17.122Z,94.2
2019-03-30T05:03:16.425Z,94.2
2019-03-30T05:04:16.714Z,94.3
2019-03-30T05:05:16.992Z,94.3
2019-03-30T05:06:16.337Z,94.4
2019-03-30T05:07:16.633Z,94.4
2019-03-30T05:08:16.941Z,94.5
2019-03-30T05:09:17.230Z,94.7
2019-03-30T05:10:16.541Z,94.7
2019-03-30T05:11:16.596Z,94.7
2019-03-30T05:12:16.903Z,94.8
2019-03-30T05:13:17.540Z,94.8
2019-03-30T05:14:16.809Z,94.8
2019-03-30T05:15:17.113Z,94.8
2019-03-30T05:16:16.419Z,94.7
2019-03-30T05:17:16.709Z,94.5
2019-03-30T05:18:16.984Z,94.3
2019-03-30T05:19:17.313Z,94.3
2019-03-30T05:20:16.620Z,94.2
2019-03-30T05:21:16.690Z,94.2
2019-03-30T05:22:17.084Z,94.2
2019-03-30T05:23:16.416Z,94.2
2019-03-30T05:24:16.725Z,94.0
2019-03-30T05:25:17.077Z,93.9
2019-03-30T05:26:16.395Z,93.9
2019-03-30T05:27:16.725Z,93.8
2019-03-30T05:28:17.016Z,93.8
2019-03-30T05:29:16.329Z,93.7
2019-03-30T05:30:16.644Z,93.7
2019-03-30T05:31:16.691Z,93.7
2019-03-30T05:32:16.995Z,93.7
2019-03-30T05:33:16.277Z,93.5
2019-03-30T05:34:16.580Z,93.6
2019-03-30T05:35:16.878Z,93.5
2019-03-30T05:36:17.169Z,93.5
2019-03-30T05:37:16.474Z,93.5
2019-03-30T05:38:16.783Z,93.6
2019-03-30T05:39:17.096Z,93.8
2019-03-30T05:40:16.388Z,93.7
2019-03-30T05:41:16.454Z,93.7
2019-03-30T05:42:16.754Z,93.6
2019-03-30T05:43:17.015Z,93.4
2019-03-30T05:44:16.325Z,93.3
2019-03-30T05:45:16.678Z,93.3
2019-03-30T05:46:16.980Z,93.3
2019-03-30T05:47:17.278Z,93.2
2019-03-30T05:48:16.581Z,93.2
2019-03-30T05:49:16.888Z,93.1
2019-03-30T05:50:17.212Z,93.2
2019-03-30T05:51:17.233Z,93.0
2019-03-30T05:52:27.058Z,92.7
2019-03-30T05:53:16.494Z,92.6
2019-03-30T05:54:16.817Z,92.6
2019-03-30T05:55:17.133Z,92.5
2019-03-30T05:56:16.402Z,92.3
2019-03-30T05:57:16.702Z,92.2
2019-03-30T05:58:17.004Z,91.9
2019-03-30T05:59:16.266Z,91.6
2019-03-30T06:00:16.572Z,91.6
2019-03-30T06:01:16.608Z,91.6
2019-03-30T06:02:16.902Z,91.7
2019-03-30T06:03:17.238Z,91.5
2019-03-30T06:04:16.550Z,91.5
2019-03-30T06:05:16.853Z,91.3
2019-03-30T06:06:17.147Z,90.8
2019-03-30T06:07:16.430Z,90.7
2019-03-30T06:08:16.722Z,90.8
2019-03-30T06:09:17.031Z,90.5
2019-03-30T06:10:16.409Z,90.0
2019-03-30T06:11:16.416Z,89.8
2019-03-30T06:12:16.715Z,89.6
2019-03-30T06:13:17.022Z,89.5
2019-03-30T06:14:16.324Z,89.4
2019-03-30T06:15:16.637Z,89.2
2019-03-30T06:16:16.937Z,88.7
2019-03-30T06:17:17.240Z,88.7
2019-03-30T06:18:16.574Z,88.6
2019-03-30T06:19:16.895Z,88.2
2019-03-30T06:20:17.217Z,87.8
2019-03-30T06:21:17.275Z,87.8
2019-03-30T06:22:16.569Z,87.5
2019-03-30T06:23:16.872Z,87.1
2019-03-30T06:24:17.170Z,87.2
2019-03-30T06:25:16.476Z,87.2
2019-03-30T06:26:16.785Z,87.5
2019-03-30T06:27:17.097Z,87.6
2019-03-30T06:28:16.459Z,88.4
2019-03-30T06:29:16.774Z,89.0
2019-03-30T06:30:17.087Z,88.9
2019-03-30T06:31:17.122Z,88.9
2019-03-30T06:32:16.432Z,88.6
2019-03-30T06:33:16.728Z,88.5
2019-03-30T06:34:17.010Z,88.5
2019-03-30T06:35:16.323Z,88.1
2019-03-30T06:36:16.603Z,88.1
2019-03-30T06:37:16.885Z,88.3
2019-03-30T06:38:17.922Z,88.7
2019-03-30T06:39:17.222Z,88.6
2019-03-30T06:40:16.529Z,88.2
2019-03-30T06:41:16.798Z,87.8
2019-03-30T06:42:17.088Z,87.3
2019-03-30T06:43:16.393Z,87.2
2019-03-30T06:44:16.796Z,86.9
2019-03-30T06:45:17.122Z,86.2
2019-03-30T06:46:16.442Z,86.2
2019-03-30T06:47:16.757Z,86.3
2019-03-30T06:48:17.072Z,86.2
2019-03-30T06:49:16.389Z,86.2
2019-03-30T06:50:16.718Z,86.3
2019-03-30T06:51:16.739Z,86.6
2019-03-30T06:52:17.051Z,86.2
2019-03-30T06:53:16.371Z,85.6
2019-03-30T06:54:16.676Z,85.3
2019-03-30T06:55:17.008Z,85.3
2019-03-30T06:56:16.294Z,85.2
2019-03-30T06:57:16.595Z,84.3
2019-03-30T06:58:16.873Z,84.2
2019-03-30T06:59:17.179Z,84.1
2019-03-30T07:00:16.486Z,83.7
2019-03-30T07:01:16.562Z,83.5
2019-03-30T07:02:16.860Z,83.0
2019-03-30T07:03:17.167Z,83.2
2019-03-30T07:04:16.486Z,83.4
2019-03-30T07:05:16.802Z,83.3
2019-03-30T07:06:17.097Z,83.4
2019-03-30T07:07:16.413Z,83.8
2019-03-30T07:08:16.720Z,84.4
2019-03-30T07:09:17.381Z,83.6
2019-03-30T07:10:16.723Z,83.6
2019-03-30T07:11:21.689Z,83.4
2019-03-30T07:12:17.003Z,83.2
2019-03-30T07:13:16.324Z,83.0
2019-03-30T07:14:16.647Z,81.8
2019-03-30T07:15:17.014Z,80.9
2019-03-30T07:16:16.298Z,80.9
2019-03-30T07:17:16.590Z,80.9
2019-03-30T07:18:16.900Z,80.0
2019-03-30T07:19:17.513Z,79.5
2019-03-30T07:20:16.831Z,79.1
2019-03-30T07:21:16.834Z,78.5
2019-03-30T07:22:17.140Z,78.4
2019-03-30T07:23:16.448Z,78.3
2019-03-30T07:24:16.753Z,77.8
2019-03-30T07:25:17.059Z,77.8
2019-03-30T07:26:16.362Z,78.3
2019-03-30T07:27:16.661Z,78.2
2019-03-30T07:28:16.966Z,77.5
2019-03-30T07:29:17.269Z,76.4
2019-03-30T07:30:16.617Z,76.4
2019-03-30T07:31:16.602Z,77.2
2019-03-30T07:32:16.924Z,77.2
2019-03-30T07:33:17.218Z,77.4
2019-03-30T07:34:16.527Z,77.3
2019-03-30T07:35:16.875Z,75.9
2019-03-30T07:36:17.169Z,75.3
2019-03-30T07:37:16.485Z,75.7
2019-03-30T07:38:16.786Z,75.2
2019-03-30T07:39:17.078Z,75.1
2019-03-30T07:40:16.382Z,75.8
2019-03-30T07:41:16.427Z,76.0
2019-03-30T07:42:16.726Z,74.3
2019-03-30T07:43:17.020Z,73.0
2019-03-30T07:44:16.343Z,71.7
2019-03-30T07:45:16.638Z,70.5
2019-03-30T07:46:19.876Z,71.2
2019-03-30T07:47:17.217Z,70.9
2019-03-30T07:48:16.520Z,70.7
2019-03-30T07:49:16.810Z,70.2
2019-03-30T07:50:17.103Z,69.0
2019-03-30T07:51:17.151Z,69.1
2019-03-30T07:52:16.485Z,70.0
2019-03-30T07:53:26.999Z,70.0
2019-03-30T07:54:16.452Z,69.5
2019-03-30T07:55:16.783Z,69.0
2019-03-30T07:56:17.092Z,68.7
2019-03-30T07:57:17.625Z,69.8
2019-03-30T07:58:16.964Z,68.8
2019-03-30T07:59:17.267Z,68.3
2019-03-30T08:00:16.595Z,67.5
2019-03-30T08:01:16.633Z,67.8
2019-03-30T08:02:16.921Z,67.7
2019-03-30T08:03:17.226Z,67.0
2019-03-30T08:04:16.526Z,66.8
2019-03-30T08:05:16.838Z,66.6
2019-03-30T08:06:17.137Z,66.0
2019-03-30T08:07:16.468Z,66.0
2019-03-30T08:08:16.761Z,66.1
2019-03-30T08:09:17.056Z,66.3
2019-03-30T08:10:16.389Z,65.5
2019-03-30T08:11:16.378Z,65.6
2019-03-30T08:12:16.688Z,65.5
2019-03-30T08:13:16.980Z,65.8
2019-03-30T08:14:17.251Z,67.0
2019-03-30T08:15:16.577Z,65.0
2019-03-30T08:16:16.913Z,65.9
2019-03-30T08:17:17.226Z,67.2
2019-03-30T08:18:16.551Z,66.7
2019-03-30T08:19:16.852Z,64.8
2019-03-30T08:20:17.196Z,63.0
2019-03-30T08:21:17.215Z,63.7
2019-03-30T08:22:16.563Z,62.5
2019-03-30T08:23:16.867Z,62.7
2019-03-30T08:24:17.181Z,61.7
2019-03-30T08:25:16.464Z,61.9
2019-03-30T08:26:16.778Z,61.2
2019-03-30T08:27:17.071Z,61.2
2019-03-30T08:28:16.406Z,62.1
2019-03-30T08:29:16.704Z,62.4
2019-03-30T08:30:17.044Z,60.9
2019-03-30T08:31:17.062Z,60.7
2019-03-30T08:32:16.356Z,59.6
2019-03-30T08:33:16.656Z,59.1
2019-03-30T08:34:16.974Z,59.6
2019-03-30T08:35:17.259Z,59.8
2019-03-30T08:36:16.560Z,59.4
2019-03-30T08:37:16.867Z,61.2
2019-03-30T08:38:17.820Z,60.8
2019-03-30T08:39:17.133Z,62.5
2019-03-30T08:40:16.481Z,62.2
2019-03-30T08:41:16.491Z,62.8
2019-03-30T08:42:16.832Z,63.0
2019-03-30T08:43:17.119Z,62.5
2019-03-30T08:44:16.447Z,61.8
2019-03-30T08:45:16.767Z,61.2
2019-03-30T08:46:17.064Z,61.3
2019-03-30T08:47:16.375Z,61.7
2019-03-30T08:48:16.676Z,62.2
2019-03-30T08:49:16.980Z,60.9
2019-03-30T08:50:17.304Z,59.0
2019-03-30T08:51:16.353Z,59.2
2019-03-30T08:52:16.655Z,60.2
2019-03-30T08:53:16.953Z,60.5
2019-03-30T08:54:17.242Z,58.2
2019-03-30T08:55:16.536Z,57.8
2019-03-30T08:56:16.838Z,57.9
2019-03-30T08:57:17.167Z,60.0
2019-03-30T08:58:16.470Z,60.4
2019-03-30T08:59:16.761Z,59.3
2019-03-30T09:00:17.274Z,59.9
2019-03-30T09:01:17.107Z,61.0
2019-03-30T09:02:16.417Z,61.6
2019-03-30T09:03:16.730Z,60.8
2019-03-30T09:04:17.033Z,60.1
2019-03-30T09:05:16.308Z,60.3
2019-03-30T09:06:16.613Z,60.4
2019-03-30T09:07:16.915Z,60.5
2019-03-30T09:08:17.194Z,59.9
2019-03-30T09:09:16.511Z,58.0
2019-03-30T09:10:16.810Z,57.0
2019-03-30T09:11:16.910Z,56.4
2019-03-30T09:12:17.213Z,55.3
2019-03-30T09:13:16.511Z,57.1
2019-03-30T09:14:16.811Z,57.7
2019-03-30T09:15:17.125Z,60.3
2019-03-30T09:16:16.473Z,60.2
2019-03-30T09:17:16.796Z,59.6
2019-03-30T09:18:17.100Z,60.5
2019-03-30T09:19:16.395Z,58.5
2019-03-30T09:20:16.691Z,59.1
2019-03-30T09:21:16.727Z,58.6
2019-03-30T09:22:17.029Z,58.5
2019-03-30T09:23:16.324Z,58.3
2019-03-30T09:24:16.604Z,57.2
2019-03-30T09:25:16.914Z,56.3
2019-03-30T09:26:17.213Z,57.8
2019-03-30T09:27:16.535Z,58.4
2019-03-30T09:28:16.851Z,58.4
2019-03-30T09:29:17.154Z,58.7
2019-03-30T09:30:16.494Z,57.2
2019-03-30T09:31:16.526Z,56.0
2019-03-30T09:32:16.864Z,57.0
2019-03-30T09:33:17.165Z,56.8
2019-03-30T09:34:16.475Z,56.7
2019-03-30T09:35:16.777Z,56.0
2019-03-30T09:36:17.080Z,56.7
2019-03-30T09:37:16.379Z,55.4
2019-03-30T09:38:16.713Z,56.3
2019-03-30T09:39:17.070Z,57.0
2019-03-30T09:40:16.398Z,58.3
2019-03-30T09:41:16.443Z,57.7
2019-03-30T09:42:16.768Z,57.9
2019-03-30T09:43:17.091Z,57.0
2019-03-30T09:44:16.382Z,56.4
2019-03-30T09:45:16.684Z,56.6
2019-03-30T09:46:17.001Z,57.2
2019-03-30T09:47:16.307Z,55.6
2019-03-30T09:48:16.630Z,54.0
2019-03-30T09:49:16.914Z,53.2
2019-03-30T09:50:17.250Z,55.1
2019-03-30T09:51:17.273Z,55.8
2019-03-30T09:52:16.575Z,55.9
2019-03-30T09:53:16.838Z,56.4
2019-03-30T09:54:24.303Z,55.4
2019-03-30T09:55:16.722Z,54.8
2019-03-30T09:56:17.052Z,54.9
2019-03-30T09:57:16.385Z,55.9
2019-03-30T09:58:16.699Z,55.8
2019-03-30T09:59:17.037Z,54.4
2019-03-30T10:00:16.358Z,55.4
2019-03-30T10:01:16.420Z,56.3
2019-03-30T10:02:16.721Z,55.8
2019-03-30T10:03:17.033Z,54.6
2019-03-30T10:04:16.369Z,54.5
2019-03-30T10:05:16.813Z,54.9
2019-03-30T10:06:17.118Z,55.3
2019-03-30T10:07:16.428Z,54.7
2019-03-30T10:08:16.728Z,53.8
2019-03-30T10:09:17.075Z,53.7
2019-03-30T10:10:16.392Z,54.3
2019-03-30T10:11:16.450Z,53.7
2019-03-30T10:12:16.776Z,54.4
2019-03-30T10:13:17.080Z,53.8
2019-03-30T10:14:16.382Z,52.8
2019-03-30T10:15:16.768Z,52.0
2019-03-30T10:16:17.064Z,52.1
2019-03-30T10:17:16.381Z,51.0
2019-03-30T10:18:16.685Z,49.8
2019-03-30T10:19:16.986Z,50.4
2019-03-30T10:20:16.320Z,50.3
2019-03-30T10:21:16.343Z,51.9
2019-03-30T10:22:16.713Z,51.9
2019-03-30T10:23:17.005Z,52.3
2019-03-30T10:24:16.317Z,52.3
2019-03-30T10:25:16.602Z,52.8
2019-03-30T10:26:16.897Z,50.1
2019-03-30T10:27:17.240Z,49.5
2019-03-30T10:28:16.556Z,49.0
2019-03-30T10:29:16.877Z,50.4
2019-03-30T10:30:17.206Z,48.7
2019-03-30T10:31:17.335Z,49.4
2019-03-30T10:32:16.644Z,48.3
2019-03-30T10:33:16.908Z,49.8
2019-03-30T10:34:17.214Z,49.3
2019-03-30T10:35:16.530Z,48.5
2019-03-30T10:36:16.830Z,49.0
2019-03-30T10:37:17.441Z,48.5
2019-03-30T10:38:16.749Z,47.8
2019-03-30T10:39:17.055Z,46.0
2019-03-30T10:40:16.365Z,46.8
2019-03-30T10:41:16.406Z,46.5
2019-03-30T10:42:16.718Z,45.9
2019-03-30T10:43:17.050Z,45.4
2019-03-30T10:44:16.362Z,45.3
2019-03-30T10:45:16.664Z,44.5
2019-03-30T10:46:16.970Z,46.8
2019-03-30T10:47:17.285Z,44.9
2019-03-30T10:48:16.599Z,45.0
2019-03-30T10:49:16.892Z,42.7
2019-03-30T10:50:17.225Z,42.3
2019-03-30T10:51:17.256Z,42.4
2019-03-30T10:52:16.562Z,44.3
2019-03-30T10:53:16.867Z,45.4
2019-03-30T10:54:17.195Z,44.5
2019-03-30T10:55:16.534Z,44.2
2019-03-30T10:56:16.817Z,44.5
2019-03-30T10:57:17.111Z,45.5
2019-03-30T10:58:16.414Z,46.3
2019-03-30T10:59:16.723Z,45.9
2019-03-30T11:00:17.045Z,45.2
2019-03-30T11:01:17.090Z,45.0
2019-03-30T11:02:16.400Z,45.4
2019-03-30T11:03:16.718Z,45.3
2019-03-30T11:04:17.007Z,46.0
2019-03-30T11:05:16.346Z,46.4
2019-03-30T11:06:16.641Z,46.3
2019-03-30T11:07:16.956Z,45.5
2019-03-30T11:08:17.256Z,46.8
2019-03-30T11:09:16.558Z,46.8
2019-03-30T11:10:16.880Z,47.4
2019-03-30T11:11:16.914Z,46.2
2019-03-30T11:12:17.237Z,45.3
2019-03-30T11:13:16.545Z,46.6
2019-03-30T11:14:16.850Z,47.0
2019-03-30T11:15:17.134Z,45.9
2019-03-30T11:16:16.453Z,45.5
2019-03-30T11:17:19.615Z,46.1
2019-03-30T11:18:16.916Z,45.3
2019-03-30T11:19:17.231Z,46.5
2019-03-30T11:20:16.519Z,47.4
2019-03-30T11:21:16.587Z,45.5
2019-03-30T11:22:16.918Z,45.9
2019-03-30T11:23:17.186Z,45.4
2019-03-30T11:24:16.492Z,45.2
2019-03-30T11:25:16.837Z,45.7
2019-03-30T11:26:17.165Z,44.5
2019-03-30T11:27:16.506Z,44.5
2019-03-30T11:28:16.827Z,45.2
2019-03-30T11:29:17.162Z,46.5
2019-03-30T11:30:16.500Z,47.0
2019-03-30T11:31:16.520Z,47.2
2019-03-30T11:32:16.838Z,46.0
2019-03-30T11:33:17.128Z,45.4
2019-03-30T11:34:16.446Z,45.0
2019-03-30T11:35:16.770Z,44.8
2019-03-30T11:36:18.905Z,45.0
2019-03-30T11:37:17.230Z,44.0
2019-03-30T11:38:16.537Z,44.5
2019-03-30T11:39:16.813Z,44.4
2019-03-30T11:40:17.113Z,45.4
2019-03-30T11:41:17.160Z,45.4
2019-03-30T11:42:16.477Z,46.7
2019-03-30T11:43:16.777Z,46.9
2019-03-30T11:44:17.068Z,47.0
2019-03-30T11:45:16.366Z,47.1
2019-03-30T11:46:16.701Z,47.8
2019-03-30T11:47:16.986Z,48.2
2019-03-30T11:48:17.289Z,48.0
2019-03-30T11:49:16.600Z,47.0
2019-03-30T11:50:16.927Z,47.9
2019-03-30T11:51:16.935Z,47.3
2019-03-30T11:52:17.233Z,46.4
2019-03-30T11:53:16.562Z,46.5
2019-03-30T11:54:16.875Z,48.1
2019-03-30T11:55:22.634Z,48.2
2019-03-30T11:56:17.003Z,48.1
2019-03-30T11:57:16.312Z,48.3
2019-03-30T11:58:16.610Z,50.0
2019-03-30T11:59:16.892Z,49.9
2019-03-30T12:00:17.309Z,50.0
2019-03-30T12:01:17.279Z,49.2
2019-03-30T12:02:28.443Z,49.5
2019-03-30T12:03:16.791Z,49.2
2019-03-30T12:04:17.108Z,48.4
2019-03-30T12:05:16.408Z,47.7
2019-03-30T12:06:16.715Z,48.2
2019-03-30T12:07:17.095Z,48.6
2019-03-30T12:08:16.432Z,48.6
2019-03-30T12:09:16.731Z,48.8
2019-03-30T12:10:17.054Z,48.5
2019-03-30T12:11:17.118Z,49.3
2019-03-30T12:12:16.422Z,48.8
2019-03-30T12:13:16.732Z,49.0
2019-03-30T12:14:17.041Z,49.6
2019-03-30T12:15:16.383Z,50.0
2019-03-30T12:16:16.699Z,48.9
2019-03-30T12:17:17.008Z,48.5
2019-03-30T12:18:16.280Z,48.6
2019-03-30T12:19:16.601Z,48.9
2019-03-30T12:20:16.883Z,49.4
2019-03-30T12:21:16.957Z,46.9
2019-03-30T12:22:17.252Z,46.8
2019-03-30T12:23:16.558Z,45.8
2019-03-30T12:24:16.855Z,45.4
2019-03-30T12:25:17.200Z,44.2
2019-03-30T12:26:16.508Z,44.0
2019-03-30T12:27:16.816Z,44.3
2019-03-30T12:28:17.098Z,44.8
2019-03-30T12:29:16.394Z,45.9
2019-03-30T12:30:16.704Z,46.5
2019-03-30T12:31:16.739Z,45.3
2019-03-30T12:32:17.033Z,45.4
2019-03-30T12:33:16.354Z,44.4
2019-03-30T12:34:16.618Z,45.0
2019-03-30T12:35:16.931Z,45.7
2019-03-30T12:36:17.234Z,45.9
2019-03-30T12:37:16.541Z,46.0
2019-03-30T12:38:16.832Z,46.4
2019-03-30T12:39:17.134Z,46.2
2019-03-30T12:40:16.468Z,46.8
2019-03-30T12:41:16.478Z,47.1
2019-03-30T12:42:16.818Z,47.1
2019-03-30T12:43:17.168Z,47.1
2019-03-30T12:44:16.455Z,46.6
2019-03-30T12:45:16.768Z,47.5
2019-03-30T12:46:17.064Z,47.0
2019-03-30T12:47:16.399Z,47.5
2019-03-30T12:48:16.685Z,46.7
2019-03-30T12:49:17.012Z,46.9
2019-03-30T12:50:16.312Z,48.1
2019-03-30T12:51:16.361Z,46.5
2019-03-30T12:52:16.670Z,46.7
2019-03-30T12:53:16.967Z,46.8
2019-03-30T12:54:17.283Z,46.8
2019-03-30T12:55:16.582Z,46.9
2019-03-30T12:56:16.870Z,47.1
2019-03-30T12:57:17.200Z,46.7
2019-03-30T12:58:16.505Z,46.5
2019-03-30T12:59:16.812Z,46.3
2019-03-30T13:00:17.115Z,46.5
2019-03-30T13:01:17.176Z,47.2
2019-03-30T13:02:16.499Z,46.9
2019-03-30T13:03:16.817Z,46.9
2019-03-30T13:04:17.142Z,46.9
2019-03-30T13:05:16.408Z,47.2
2019-03-30T13:06:16.697Z,46.5
2019-03-30T13:07:17.025Z,46.0
2019-03-30T13:08:16.327Z,46.5
2019-03-30T13:09:16.722Z,45.9
2019-03-30T13:10:17.039Z,45.7
2019-03-30T13:11:17.091Z,46.2
2019-03-30T13:12:16.412Z,44.8
2019-03-30T13:13:16.732Z,45.0
2019-03-30T13:14:17.108Z,44.5
2019-03-30T13:15:16.403Z,44.9
2019-03-30T13:16:16.718Z,45.3
2019-03-30T13:17:17.017Z,44.8
2019-03-30T13:18:16.340Z,44.5